createdAt,value
2023-03-16T06:03:07.660Z,23.49
2023-03-16T06:04:08.559Z,23.72
2023-03-16T06:05:08.504Z,23.79
2023-03-16T06:06:08.547Z,23.84
2023-03-16T06:07:08.575Z,23.87
2023-03-16T06:08:07.609Z,23.89
2023-03-16T06:09:08.648Z,23.90
2023-03-16T06:10:08.672Z,23.90
2023-03-16T06:11:08.670Z,23.92
2023-03-16T06:12:08.725Z,23.93
2023-03-16T06:13:08.734Z,23.94
2023-03-16T06:14:08.768Z,23.95
2023-03-16T06:15:08.849Z,23.94
2023-03-16T06:16:09.074Z,23.95
2023-03-16T06:17:07.954Z,23.96
2023-03-16T06:18:09.043Z,23.96
2023-03-16T06:19:09.072Z,23.96
2023-03-16T06:20:08.132Z,23.97
2023-03-16T06:21:09.190Z,23.97
2023-03-16T06:22:09.349Z,23.98
2023-03-16T06:23:09.295Z,23.98
2023-03-16T06:24:09.319Z,23.99
2023-03-16T06:25:09.360Z,23.99
2023-03-16T06:26:09.426Z,23.99
2023-03-16T06:27:09.481Z,23.99
2023-03-16T06:28:09.484Z,23.99
2023-03-16T06:29:09.568Z,23.99
2023-03-16T06:30:09.592Z,23.99
2023-03-16T06:31:09.680Z,23.99
2023-03-16T06:32:09.690Z,23.99
2023-03-16T06:33:09.817Z,23.98
2023-03-16T06:34:09.795Z,23.99
2023-03-16T06:35:09.858Z,23.99
2023-03-16T06:36:09.931Z,23.99
2023-03-16T06:37:08.888Z,23.98
2023-03-16T06:38:09.924Z,23.98
2023-03-16T06:39:09.950Z,23.97
2023-03-16T06:40:10.023Z,23.98
2023-03-16T06:41:10.062Z,23.98
2023-03-16T06:42:09.099Z,23.99
2023-03-16T06:43:09.129Z,23.99
2023-03-16T06:44:10.173Z,23.99
2023-03-16T06:45:10.202Z,23.99
2023-03-16T06:46:10.283Z,23.99
2023-03-16T06:47:10.305Z,23.99
2023-03-16T06:48:10.299Z,23.99
2023-03-16T06:49:10.336Z,23.99
2023-03-16T06:50:10.389Z,24.00
2023-03-16T06:51:10.422Z,24.00
2023-03-16T06:52:09.446Z,24.00
2023-03-16T06:53:09.528Z,24.00
2023-03-16T06:54:10.522Z,24.00
2023-03-16T06:55:10.560Z,24.01
2023-03-16T06:56:09.613Z,24.01
2023-03-16T06:57:10.734Z,24.01
2023-03-16T06:58:10.806Z,24.03
2023-03-16T06:59:09.704Z,24.02
2023-03-16T07:00:10.721Z,24.03
2023-03-16T07:01:10.898Z,24.03
2023-03-16T07:02:09.808Z,24.12
2023-03-16T07:03:11.016Z,24.15
2023-03-16T07:04:10.040Z,24.16
2023-03-16T07:05:10.969Z,24.16
2023-03-16T07:06:11.032Z,24.16
2023-03-16T07:07:11.030Z,24.19
2023-03-16T07:08:11.062Z,24.24
2023-03-16T07:09:11.094Z,24.28
2023-03-16T07:10:11.145Z,24.28
2023-03-16T07:11:10.133Z,24.34
2023-03-16T07:12:10.162Z,24.37
2023-03-16T07:13:11.199Z,24.39
2023-03-16T07:14:11.220Z,24.41
2023-03-16T07:15:11.257Z,24.41
2023-03-16T07:16:11.300Z,24.45
2023-03-16T07:17:10.285Z,24.43
2023-03-16T07:18:11.290Z,24.45
2023-03-16T07:19:10.303Z,24.50
2023-03-16T07:20:10.365Z,24.58
2023-03-16T07:21:10.370Z,24.55
2023-03-16T07:22:10.415Z,24.52
2023-03-16T07:23:11.406Z,24.51
2023-03-16T07:24:10.448Z,24.50
2023-03-16T07:25:11.586Z,24.49
2023-03-16T07:26:11.426Z,24.49
2023-03-16T07:27:12.584Z,24.57
2023-03-16T07:28:10.436Z,24.57
2023-03-16T07:29:10.438Z,24.57
2023-03-16T07:30:11.450Z,24.56
2023-03-16T07:31:11.427Z,24.65
2023-03-16T07:32:11.590Z,24.70
2023-03-16T07:33:11.541Z,24.75
2023-03-16T07:34:11.442Z,24.72
2023-03-16T07:35:11.518Z,24.72
2023-03-16T07:36:10.537Z,24.70
2023-03-16T07:37:10.443Z,24.71
2023-03-16T07:38:11.468Z,24.75
2023-03-16T07:39:11.444Z,24.77
2023-03-16T07:40:10.436Z,24.78
2023-03-16T07:41:11.454Z,24.82
2023-03-16T07:42:11.437Z,24.82
2023-03-16T07:43:10.447Z,24.82
2023-03-16T07:44:10.436Z,24.81
2023-03-16T07:45:11.454Z,24.80
2023-03-16T07:46:10.543Z,24.81
2023-03-16T07:47:10.476Z,24.94
2023-03-16T07:48:11.477Z,25.02
2023-03-16T07:49:11.520Z,25.07
2023-03-16T07:50:10.513Z,25.15
2023-03-16T07:51:11.635Z,25.12
2023-03-16T07:52:11.581Z,25.09
2023-03-16T07:53:11.510Z,25.04
2023-03-16T07:54:10.941Z,25.00
2023-03-16T07:55:11.519Z,24.96
2023-03-16T07:56:11.515Z,24.90
2023-03-16T07:57:10.517Z,24.86
2023-03-16T07:58:11.541Z,24.83
2023-03-16T07:59:11.523Z,24.79
2023-03-16T08:00:11.511Z,24.77
2023-03-16T08:01:11.521Z,24.74
2023-03-16T08:02:10.574Z,24.70
2023-03-16T08:03:11.532Z,24.68
2023-03-16T08:04:11.517Z,24.66
2023-03-16T08:05:11.607Z,24.65
2023-03-16T08:06:11.519Z,24.62
2023-03-16T08:07:11.529Z,24.62
2023-03-16T08:08:11.546Z,24.60
2023-03-16T08:09:10.553Z,24.58
2023-03-16T08:10:11.601Z,24.56
2023-03-16T08:11:11.582Z,24.56
2023-03-16T08:12:10.596Z,24.54
2023-03-16T08:13:11.623Z,24.53
2023-03-16T08:14:11.622Z,24.52
2023-03-16T08:15:11.646Z,24.52
2023-03-16T08:16:11.673Z,24.51
2023-03-16T08:17:11.693Z,24.50
2023-03-16T08:18:11.709Z,24.49
2023-03-16T08:19:11.713Z,24.49
2023-03-16T08:20:11.719Z,24.48
2023-03-16T08:21:11.735Z,24.48
2023-03-16T08:22:11.760Z,24.48
2023-03-16T08:23:11.794Z,24.48
2023-03-16T08:24:10.800Z,24.47
2023-03-16T08:25:11.825Z,24.46
2023-03-16T08:26:11.867Z,24.47
2023-03-16T08:27:11.860Z,24.46
2023-03-16T08:28:11.880Z,24.46
2023-03-16T08:29:11.914Z,24.45
2023-03-16T08:30:11.989Z,24.45
2023-03-16T08:31:11.959Z,24.45
2023-03-16T08:32:11.966Z,24.45
2023-03-16T08:33:12.095Z,24.45
2023-03-16T08:34:11.997Z,24.44
2023-03-16T08:35:12.020Z,24.44
2023-03-16T08:36:12.169Z,24.45
2023-03-16T08:37:12.070Z,24.44
2023-03-16T08:38:12.086Z,24.44
2023-03-16T08:39:12.261Z,24.43
2023-03-16T08:40:12.144Z,24.42
2023-03-16T08:41:11.162Z,24.42
2023-03-16T08:42:12.215Z,24.43
2023-03-16T08:43:12.207Z,24.42
2023-03-16T08:44:12.231Z,24.42
2023-03-16T08:45:14.000Z,24.42
2023-03-16T08:46:12.259Z,24.42
2023-03-16T08:47:12.286Z,24.41
2023-03-16T08:48:12.555Z,24.41
2023-03-16T08:49:12.238Z,24.41
2023-03-16T08:50:12.231Z,24.40
2023-03-16T08:51:11.220Z,24.40
2023-03-16T08:52:12.206Z,24.40
2023-03-16T08:53:12.221Z,24.41
2023-03-16T08:54:12.202Z,24.40
2023-03-16T08:55:12.183Z,24.40
2023-03-16T08:56:12.176Z,24.40
2023-03-16T08:57:12.168Z,24.40
2023-03-16T08:58:12.356Z,24.40
2023-03-16T08:59:27.071Z,24.39
2023-03-16T09:00:12.161Z,24.39
2023-03-16T09:01:12.150Z,24.39
2023-03-16T09:02:12.197Z,24.39
2023-03-16T09:03:12.152Z,24.39
2023-03-16T09:04:12.143Z,24.39
2023-03-16T09:05:12.125Z,24.40
2023-03-16T09:06:12.132Z,24.40
2023-03-16T09:07:11.179Z,24.39
2023-03-16T09:08:12.100Z,24.39
2023-03-16T09:09:11.096Z,24.38
2023-03-16T09:10:12.082Z,24.38
2023-03-16T09:11:12.071Z,24.38
2023-03-16T09:12:12.067Z,24.38
2023-03-16T09:13:12.083Z,24.37
2023-03-16T09:14:11.089Z,24.38
2023-03-16T09:15:12.091Z,24.38
2023-03-16T09:16:12.160Z,24.38
2023-03-16T09:17:12.097Z,24.38
2023-03-16T09:18:12.075Z,24.38
2023-03-16T09:19:12.119Z,24.37
2023-03-16T09:20:21.866Z,24.38
2023-03-16T09:21:12.119Z,24.38
2023-03-16T09:22:12.116Z,24.38
2023-03-16T09:23:12.118Z,24.38
2023-03-16T09:24:11.113Z,24.39
2023-03-16T09:25:12.092Z,24.38
2023-03-16T09:26:12.085Z,24.38
2023-03-16T09:27:13.204Z,24.38
2023-03-16T09:28:12.078Z,24.38
2023-03-16T09:29:12.062Z,24.36
2023-03-16T09:30:12.090Z,24.35
2023-03-16T09:31:12.181Z,24.40
2023-03-16T09:32:12.040Z,24.45
2023-03-16T09:33:11.123Z,24.46
2023-03-16T09:34:12.035Z,24.47
2023-03-16T09:35:11.043Z,24.46
2023-03-16T09:36:12.134Z,24.50
2023-03-16T09:37:12.084Z,24.59
2023-03-16T09:38:12.144Z,24.58
2023-03-16T09:39:12.159Z,24.57
2023-03-16T09:40:12.276Z,24.54
2023-03-16T09:41:11.223Z,24.53
2023-03-16T09:42:11.250Z,24.51
2023-03-16T09:43:12.582Z,24.52
2023-03-16T09:44:12.308Z,24.52
2023-03-16T09:45:11.353Z,24.53
2023-03-16T09:46:11.451Z,24.52
2023-03-16T09:47:12.403Z,24.49
2023-03-16T09:48:12.441Z,24.48
2023-03-16T09:49:12.473Z,24.47
2023-03-16T09:50:12.564Z,24.47
2023-03-16T09:51:12.602Z,24.47
2023-03-16T09:52:12.544Z,24.45
2023-03-16T09:53:11.573Z,24.44
2023-03-16T09:54:12.596Z,24.45
2023-03-16T09:55:12.648Z,24.43
2023-03-16T09:56:12.669Z,24.43
2023-03-16T09:57:12.701Z,24.43
2023-03-16T09:58:12.082Z,24.46
2023-03-16T09:59:12.770Z,24.50
2023-03-16T10:00:12.796Z,24.49
2023-03-16T10:01:12.874Z,24.46
2023-03-16T10:02:12.900Z,24.44
2023-03-16T10:03:12.920Z,24.46
2023-03-16T10:04:12.961Z,24.48
2023-03-16T10:05:12.994Z,24.48
2023-03-16T10:06:13.027Z,24.47
2023-03-16T10:07:13.061Z,24.48
2023-03-16T10:08:12.199Z,24.46
2023-03-16T10:09:13.150Z,24.44
2023-03-16T10:10:12.188Z,24.41
2023-03-16T10:11:13.245Z,24.38
2023-03-16T10:12:13.313Z,24.34
2023-03-16T10:13:12.388Z,24.29
2023-03-16T10:14:13.417Z,24.22
2023-03-16T10:15:13.452Z,24.15
2023-03-16T10:16:13.438Z,24.08
2023-03-16T10:17:12.411Z,24.02
2023-03-16T10:18:13.564Z,23.97
2023-03-16T10:19:12.435Z,23.90
2023-03-16T10:20:13.464Z,23.81
2023-03-16T10:21:13.484Z,23.71
2023-03-16T10:22:13.507Z,23.64
2023-03-16T10:23:13.554Z,23.57
2023-03-16T10:24:13.653Z,23.53
2023-03-16T10:25:13.640Z,23.50
2023-03-16T10:26:13.696Z,23.48
2023-03-16T10:27:13.745Z,23.48
2023-03-16T10:28:13.792Z,23.47
2023-03-16T10:29:12.865Z,23.46
2023-03-16T10:30:13.906Z,23.46
2023-03-16T10:31:14.032Z,23.46
2023-03-16T10:32:14.004Z,23.47
2023-03-16T10:33:14.162Z,23.49
2023-03-16T10:34:13.113Z,23.49
2023-03-16T10:35:13.137Z,23.50
2023-03-16T10:36:14.261Z,23.51
2023-03-16T10:37:14.231Z,23.49
2023-03-16T10:38:14.060Z,23.45
2023-03-16T10:39:14.333Z,23.41
2023-03-16T10:40:14.451Z,23.39
2023-03-16T10:41:14.461Z,23.37
2023-03-16T10:42:14.506Z,23.36
2023-03-16T10:43:14.603Z,23.37
2023-03-16T10:45:13.698Z,23.38
2023-03-16T10:46:15.266Z,23.38
2023-03-16T10:47:14.916Z,23.35
2023-03-16T10:48:15.110Z,23.37
2023-03-16T10:49:14.944Z,23.39
2023-03-16T10:50:14.968Z,23.42
2023-03-16T10:51:15.014Z,23.45
2023-03-16T10:52:15.065Z,23.48
2023-03-16T11:34:15.917Z,23.65
2023-03-16T11:35:15.959Z,23.65
2023-03-16T11:36:16.054Z,23.63
2023-03-16T11:37:16.064Z,23.62
2023-03-16T11:38:16.072Z,23.61
2023-03-16T11:39:15.083Z,23.60
2023-03-16T11:40:16.129Z,23.60
2023-03-16T11:41:15.161Z,23.58
2023-03-16T11:42:15.218Z,23.52
2023-03-16T11:43:15.255Z,23.45
2023-03-16T11:44:15.300Z,23.36
2023-03-16T11:45:16.372Z,23.32
2023-03-16T11:46:16.458Z,23.29
2023-03-16T11:47:16.488Z,23.29
2023-03-16T11:48:16.655Z,23.32
2023-03-16T11:49:16.154Z,23.34
2023-03-16T11:50:15.693Z,23.36
2023-03-16T11:51:16.709Z,23.37
2023-03-16T11:52:16.758Z,23.40
2023-03-16T11:53:16.857Z,23.39
2023-03-16T11:54:16.860Z,23.38
2023-03-16T11:55:16.930Z,23.37
2023-03-16T11:56:16.990Z,23.36
2023-03-16T11:57:17.038Z,23.36
2023-03-16T11:58:16.102Z,23.36
2023-03-16T11:59:17.159Z,23.36
2023-03-16T12:00:16.326Z,23.37
2023-03-16T12:01:17.280Z,23.37
2023-03-16T12:02:17.483Z,23.40
2023-03-16T12:03:17.453Z,23.41
2023-03-16T12:04:17.532Z,23.42
2023-03-16T12:05:17.515Z,23.44
2023-03-16T12:06:23.059Z,23.45
2023-03-16T12:07:17.550Z,23.47
2023-03-16T12:23:17.501Z,23.58
2023-03-16T12:24:17.426Z,23.58
2023-03-16T12:25:17.468Z,23.59
2023-03-16T12:26:16.417Z,23.59
2023-03-16T12:27:17.566Z,23.60
2023-03-16T12:28:17.399Z,23.60
2023-03-16T12:29:17.404Z,23.59
2023-03-16T12:30:17.398Z,23.60
2023-03-16T12:31:17.412Z,23.60
2023-03-16T12:32:16.386Z,23.61
2023-03-16T12:33:17.374Z,23.62
2023-03-16T12:34:17.373Z,23.65
2023-03-16T12:35:17.360Z,23.65
2023-03-16T12:36:17.358Z,23.67
2023-03-16T12:37:17.353Z,23.68
2023-03-16T12:38:17.348Z,23.74
2023-03-16T12:39:16.648Z,23.75
2023-03-16T12:40:17.324Z,23.76
2023-03-16T12:41:18.110Z,23.77
2023-03-16T12:42:17.306Z,23.88
2023-03-16T12:43:17.372Z,23.87
2023-03-16T12:44:17.306Z,23.90
2023-03-16T12:45:17.290Z,23.93
2023-03-16T12:46:17.398Z,23.97
2023-03-16T12:47:17.312Z,23.99
2023-03-16T12:48:17.304Z,24.01
2023-03-16T12:49:16.290Z,24.00
2023-03-16T12:50:17.267Z,23.94
2023-03-16T12:51:17.253Z,23.97
2023-03-16T12:52:17.243Z,24.00
2023-03-16T12:53:17.252Z,23.99
2023-03-16T12:54:16.300Z,24.02
2023-03-16T12:55:17.306Z,24.01
2023-03-16T12:56:17.359Z,23.99
2023-03-16T12:57:16.425Z,23.94
2023-03-16T12:58:16.424Z,23.88
2023-03-16T12:59:17.476Z,23.86
2023-03-16T13:00:17.552Z,23.84
2023-03-16T13:01:17.600Z,23.82
2023-03-16T13:02:16.599Z,23.80
2023-03-16T13:03:17.649Z,23.80
2023-03-16T13:04:17.729Z,23.79
2023-03-16T13:05:17.782Z,23.79
2023-03-16T13:06:17.766Z,23.82
2023-03-16T13:07:17.806Z,23.83
2023-03-16T13:08:17.862Z,23.86
2023-03-16T13:09:17.887Z,23.90
2023-03-16T13:10:17.946Z,23.90
2023-03-16T13:11:17.961Z,23.90
2023-03-16T13:12:16.989Z,23.90
2023-03-16T13:13:17.049Z,23.91
2023-03-16T13:14:18.076Z,23.87
2023-03-16T13:15:18.113Z,23.86
2023-03-16T13:16:17.165Z,23.87
2023-03-16T13:17:18.297Z,23.85
2023-03-16T13:18:18.236Z,23.81
2023-03-16T13:19:18.303Z,23.79
2023-03-16T13:20:29.464Z,23.78
2023-03-16T13:21:18.316Z,23.78
2023-03-16T13:22:18.325Z,23.85
2023-03-16T13:23:18.418Z,23.85
2023-03-16T13:24:18.319Z,23.86
2023-03-16T13:25:17.304Z,23.84
2023-03-16T13:26:18.347Z,23.85
2023-03-16T13:27:18.273Z,23.86
2023-03-16T13:28:18.265Z,23.85
2023-03-16T13:29:18.305Z,23.82
2023-03-16T13:30:18.371Z,23.82
2023-03-16T13:31:17.280Z,23.85
2023-03-16T13:32:18.249Z,23.88
2023-03-16T13:33:18.251Z,23.93
2023-03-16T13:34:18.234Z,23.93
2023-03-16T13:35:18.230Z,23.93
2023-03-16T13:36:18.284Z,23.94
2023-03-16T13:37:18.286Z,23.92
2023-03-16T13:38:18.332Z,23.90
2023-03-16T13:39:18.357Z,23.85
2023-03-16T13:40:18.402Z,23.82
2023-03-16T13:41:18.446Z,23.80
2023-03-16T13:42:17.461Z,23.80
2023-03-16T13:43:17.479Z,23.83
2023-03-16T13:44:18.528Z,23.84
2023-03-16T13:45:18.550Z,23.85
2023-03-16T13:46:18.602Z,23.85
2023-03-16T13:47:20.206Z,23.84
2023-03-16T13:48:17.542Z,23.86
2023-03-16T13:49:18.539Z,23.85
2023-03-16T13:50:18.525Z,23.86
2023-03-16T13:51:18.577Z,23.86
2023-03-16T13:52:18.523Z,23.87
2023-03-16T13:53:18.517Z,23.90
2023-03-16T13:54:18.558Z,23.91
2023-03-16T13:55:18.519Z,23.90
2023-03-16T13:56:18.496Z,23.91
2023-03-16T13:57:18.478Z,23.90
2023-03-16T13:58:18.484Z,23.91
2023-03-16T13:59:18.476Z,23.93
2023-03-16T14:00:17.462Z,23.96
2023-03-16T14:01:17.536Z,23.99
2023-03-16T14:02:18.561Z,24.00
2023-03-16T14:03:18.464Z,23.99
2023-03-16T14:04:17.470Z,23.97
2023-03-16T14:05:18.426Z,24.00
2023-03-16T14:06:18.429Z,24.01
2023-03-16T14:07:18.410Z,24.01
2023-03-16T14:08:17.402Z,24.02
2023-03-16T14:09:17.409Z,24.00
2023-03-16T14:10:18.404Z,24.02
2023-03-16T14:11:18.385Z,24.05
2023-03-16T14:12:18.407Z,24.09
2023-03-16T14:13:17.400Z,24.11
2023-03-16T14:14:18.532Z,24.13
2023-03-16T14:15:17.367Z,24.13
2023-03-16T14:16:18.516Z,24.10
2023-03-16T14:17:18.386Z,24.05
2023-03-16T14:18:18.359Z,23.99
2023-03-16T14:19:17.368Z,23.96
2023-03-16T14:20:18.343Z,23.97
2023-03-16T14:21:18.354Z,23.97
2023-03-16T14:22:18.347Z,24.02
2023-03-16T14:23:18.332Z,24.02
2023-03-16T14:24:18.329Z,24.04
2023-03-16T14:25:18.352Z,24.07
2023-03-16T14:26:18.319Z,24.06
2023-03-16T14:27:18.291Z,24.07
2023-03-16T14:28:18.303Z,24.05
2023-03-16T14:29:18.287Z,24.04
2023-03-16T14:30:18.293Z,24.03
2023-03-16T14:31:18.355Z,24.01
2023-03-16T14:32:17.277Z,24.01
2023-03-16T14:33:18.291Z,24.00
2023-03-16T14:34:18.265Z,24.00
2023-03-16T14:35:18.267Z,24.00
2023-03-16T14:36:17.324Z,24.00
2023-03-16T14:37:18.242Z,24.00
2023-03-16T14:38:17.236Z,24.01
2023-03-16T14:39:17.256Z,24.01
2023-03-16T14:40:17.302Z,24.02
2023-03-16T14:41:18.357Z,24.02
2023-03-16T14:42:18.486Z,24.02
2023-03-16T14:43:18.504Z,24.04
2023-03-16T14:44:17.577Z,24.03
2023-03-16T14:45:18.625Z,24.05
2023-03-16T14:46:17.770Z,24.05
2023-03-16T14:47:17.739Z,24.05
2023-03-16T14:48:18.796Z,24.04
2023-03-16T14:49:18.901Z,24.05
2023-03-16T14:50:18.945Z,24.05
2023-03-16T14:51:18.996Z,24.05
2023-03-16T14:52:19.091Z,24.06
2023-03-16T14:53:18.121Z,24.06
2023-03-16T14:54:19.207Z,24.06
2023-03-16T14:55:19.260Z,24.05
2023-03-16T14:56:19.311Z,24.06
2023-03-16T14:57:19.363Z,24.06
2023-03-16T14:58:19.457Z,24.05
2023-03-16T14:59:19.482Z,24.05
2023-03-16T15:00:19.531Z,24.05
2023-03-16T15:01:19.759Z,24.04
2023-03-16T15:02:19.686Z,24.03
2023-03-16T15:03:18.669Z,24.04
2023-03-16T15:04:18.709Z,24.03
2023-03-16T15:05:19.762Z,24.03
2023-03-16T15:06:19.728Z,24.02
2023-03-16T15:07:19.754Z,24.01
2023-03-16T15:08:19.778Z,24.00
2023-03-16T15:09:18.784Z,24.00
2023-03-16T15:10:19.773Z,23.99
2023-03-16T15:11:19.776Z,23.99
2023-03-16T15:12:19.847Z,23.98
2023-03-16T15:13:19.780Z,23.97
2023-03-16T15:14:19.778Z,23.96
2023-03-16T15:15:19.784Z,23.96
2023-03-16T15:16:19.866Z,23.95
2023-03-16T15:17:19.779Z,23.94
2023-03-16T15:18:19.768Z,23.93
2023-03-16T15:19:19.786Z,23.92
2023-03-16T15:20:19.787Z,23.91
2023-03-16T15:21:19.847Z,23.90
2023-03-16T15:22:19.785Z,23.91
2023-03-16T15:23:19.793Z,23.90
2023-03-16T15:24:19.802Z,23.90
2023-03-16T15:25:19.817Z,23.88
2023-03-16T15:26:19.815Z,23.88
2023-03-16T15:27:19.805Z,23.87
2023-03-16T15:28:19.835Z,23.87
2023-03-16T15:29:19.837Z,23.85
2023-03-16T15:30:18.820Z,23.84
2023-03-16T15:31:19.848Z,23.84
2023-03-16T15:32:19.827Z,23.84
2023-03-16T15:33:19.834Z,23.84
2023-03-16T15:34:19.815Z,23.84
2023-03-16T15:35:19.951Z,23.84
2023-03-16T15:36:19.851Z,23.86
2023-03-16T15:37:19.850Z,23.88
2023-03-16T15:38:19.810Z,23.88
2023-03-16T15:39:19.817Z,23.88
2023-03-16T15:40:19.824Z,23.88
2023-03-16T15:41:19.827Z,23.87
2023-03-16T15:42:19.826Z,23.88
2023-03-16T15:43:19.821Z,23.87
2023-03-16T15:44:19.822Z,23.86
2023-03-16T15:45:19.816Z,23.87
2023-03-16T15:46:19.824Z,23.87
2023-03-16T15:47:19.821Z,23.87
2023-03-16T15:48:19.814Z,23.87
2023-03-16T15:49:19.816Z,23.88
2023-03-16T15:50:19.828Z,23.88
2023-03-16T15:51:19.825Z,23.87
2023-03-16T15:52:18.828Z,23.87
2023-03-16T15:53:30.010Z,23.88
2023-03-16T15:54:19.823Z,23.87
2023-03-16T15:55:19.803Z,23.88
2023-03-16T15:56:19.817Z,23.88
2023-03-16T15:57:19.796Z,23.88
2023-03-16T15:58:18.795Z,23.87
2023-03-16T15:59:18.785Z,23.88
2023-03-16T16:00:18.769Z,23.88
2023-03-16T16:01:19.892Z,23.89
2023-03-16T16:02:19.753Z,23.90
2023-03-16T16:03:19.964Z,23.89
2023-03-16T16:04:20.127Z,23.89
2023-03-16T16:05:19.748Z,23.89
2023-03-16T16:06:19.737Z,23.89
2023-03-16T16:07:19.723Z,23.90
2023-03-16T16:08:19.726Z,23.90
2023-03-16T16:09:19.766Z,23.91
2023-03-16T16:10:19.711Z,23.91
2023-03-16T16:11:19.693Z,23.91
2023-03-16T16:12:19.697Z,23.91
2023-03-16T16:13:19.690Z,23.92
2023-03-16T16:14:18.674Z,23.92
2023-03-16T16:15:19.731Z,23.92
2023-03-16T16:16:19.831Z,23.92
2023-03-16T16:17:22.597Z,23.92
2023-03-16T16:18:21.794Z,23.92
2023-03-16T16:19:18.653Z,23.92
2023-03-16T16:20:19.638Z,23.92
2023-03-16T16:21:19.654Z,23.92
2023-03-16T16:22:18.639Z,23.92
2023-03-16T16:23:18.620Z,23.93
2023-03-16T16:24:18.699Z,23.93
2023-03-16T16:25:19.629Z,23.95
2023-03-16T16:26:18.620Z,23.93
2023-03-16T16:27:19.594Z,23.94
2023-03-16T16:28:19.612Z,23.95
2023-03-16T16:29:19.576Z,23.98
